Time;durP1;ratioP1;P1;durP2;ratioP2;P2;SDS_P1;SDS_P2;PMS_P1;PMS_P2;Temp;Humidity;BMP_temperature;BMP_pressure;BME280_temperature;BME280_humidity;BME280_pressure;Samples;Min_cycle;Max_cycle;Signal;HPM_P1;HPM_P2
2022/04/08 00:00:06;;;;;;;1.73;1.20;;;;;;;6.76;100.00;93939.16;5104043;28;20161;-79
2022/04/08 00:02:53;;;;;;;2.42;1.17;;;;;;;6.70;100.00;93945.53;5103904;28;20409;-79
2022/04/08 00:05:18;;;;;;;2.67;1.10;;;;;;;6.61;100.00;93951.66;5079764;28;20409;-79
2022/04/08 00:07:44;;;;;;;3.45;1.30;;;;;;;6.68;100.00;93942.44;5111345;28;20067;-79
2022/04/08 00:10:09;;;;;;;4.13;1.10;;;;;;;6.67;100.00;93967.00;5081068;28;20672;-79
2022/04/08 00:12:35;;;;;;;5.45;1.20;;;;;;;6.69;100.00;93962.28;5075215;28;20044;-78
2022/04/08 00:15:01;;;;;;;1.58;1.00;;;;;;;6.75;100.00;93953.31;5100188;28;20043;-78
2022/04/08 00:17:26;;;;;;;3.10;1.30;;;;;;;6.68;100.00;93960.75;5102462;28;20115;-78
2022/04/08 00:19:51;;;;;;;4.97;1.40;;;;;;;6.63;100.00;93955.56;5102561;28;20234;-78
2022/04/08 00:22:21;;;;;;;1.85;1.00;;;;;;;6.70;100.00;93955.22;5108136;28;20036;-79
2022/04/08 00:24:47;;;;;;;3.50;1.20;;;;;;;6.74;100.00;93946.53;5091414;28;20044;-79
2022/04/08 00:27:12;;;;;;;8.25;1.73;;;;;;;6.64;100.00;93959.75;5092791;28;20135;-78
2022/04/08 00:29:38;;;;;;;4.72;1.35;;;;;;;6.74;100.00;93961.44;5075574;28;20544;-77
2022/04/08 00:32:04;;;;;;;1.42;1.13;;;;;;;6.84;100.00;93966.53;5093196;28;20092;-77
2022/04/08 00:34:29;;;;;;;1.70;1.27;;;;;;;6.81;100.00;93955.84;5101939;28;20139;-78
2022/04/08 00:36:55;;;;;;;5.60;1.52;;;;;;;6.74;100.00;93964.81;5106214;28;20036;-78
2022/04/08 00:39:24;;;;;;;2.92;1.17;;;;;;;6.76;100.00;93967.94;5075026;28;20448;-77
2022/04/08 00:41:50;;;;;;;2.22;1.27;;;;;;;6.76;100.00;93965.31;5092435;28;20044;-78
2022/04/08 00:44:17;;;;;;;1.95;0.98;;;;;;;6.74;100.00;93962.22;5095387;28;20441;-79
2022/04/08 00:46:45;;;;;;;2.63;1.40;;;;;;;6.76;100.00;93978.38;5114913;28;20088;-78
2022/04/08 00:49:11;;;;;;;5.90;1.65;;;;;;;6.71;100.00;93983.69;5094564;28;20055;-78
2022/04/08 00:51:39;;;;;;;2.38;1.48;;;;;;;6.66;100.00;93975.91;5102116;28;20040;-78
2022/04/08 00:54:05;;;;;;;4.28;1.73;;;;;;;6.58;100.00;93981.78;5087960;28;20474;-75
2022/04/08 00:56:31;;;;;;;5.18;1.60;;;;;;;6.50;100.00;93985.00;5090307;28;20040;-77
2022/04/08 00:58:57;;;;;;;4.88;1.60;;;;;;;6.43;100.00;93982.75;5093297;28;20093;-77
2022/04/08 01:01:24;;;;;;;10.60;1.75;;;;;;;6.43;100.00;93992.41;5093627;28;20040;-76
2022/04/08 01:03:52;;;;;;;5.20;1.60;;;;;;;6.39;100.00;93998.22;5090211;28;20079;-76
2022/04/08 01:06:21;;;;;;;7.47;2.10;;;;;;;6.37;100.00;93994.31;5107872;28;20047;-76
2022/04/08 01:08:51;;;;;;;5.32;1.70;;;;;;;6.31;100.00;94000.66;5090645;28;20064;-76
2022/04/08 01:11:17;;;;;;;4.28;1.85;;;;;;;6.30;100.00;94005.09;5073484;28;20043;-76
2022/04/08 01:13:43;;;;;;;4.20;1.48;;;;;;;6.33;100.00;93994.09;5097414;28;20048;-76
2022/04/08 01:16:08;;;;;;;2.22;1.48;;;;;;;6.29;100.00;94008.75;5093374;28;20501;-76
2022/04/08 01:18:34;;;;;;;3.22;1.88;;;;;;;6.31;100.00;94024.94;5090920;28;20075;-76
2022/04/08 01:21:05;;;;;;;6.35;1.90;;;;;;;6.25;100.00;94013.00;5080766;28;20059;-76
2022/04/08 01:23:33;;;;;;;2.80;1.67;;;;;;;6.23;100.00;94009.88;5075465;28;20044;-76
2022/04/08 01:25:58;;;;;;;4.05;1.63;;;;;;;6.14;100.00;94006.34;5075525;28;20036;-76
2022/04/08 01:28:25;;;;;;;5.22;1.80;;;;;;;6.11;100.00;94017.34;5073218;28;20051;-77
2022/04/08 01:30:51;;;;;;;3.20;1.48;;;;;;;6.09;100.00;94045.56;5073119;28;20032;-76
2022/04/08 01:33:17;;;;;;;6.63;2.10;;;;;;;6.06;100.00;94052.09;5100471;28;20510;-77
2022/04/08 01:35:42;;;;;;;5.60;1.70;;;;;;;6.07;100.00;94028.31;5079346;28;20040;-77
2022/04/08 01:38:09;;;;;;;11.27;1.88;;;;;;;6.00;100.00;94033.09;5082316;28;20036;-77
2022/04/08 01:40:34;;;;;;;4.72;1.90;;;;;;;5.96;100.00;94026.84;5086235;28;20559;-78
2022/04/08 01:43:00;;;;;;;7.30;1.75;;;;;;;5.93;100.00;94032.59;5080380;28;20039;-78
2022/04/08 01:45:26;;;;;;;7.18;2.08;;;;;;;5.93;100.00;94043.06;5090820;28;20035;-79
2022/04/08 01:47:52;;;;;;;6.43;2.42;;;;;;;5.89;100.00;94042.06;5107772;28;20104;-79
2022/04/08 01:50:20;;;;;;;7.72;1.90;;;;;;;5.85;100.00;94057.50;5075797;28;20051;-79
2022/04/08 01:52:46;;;;;;;6.57;1.70;;;;;;;5.86;100.00;94058.25;5087607;28;20036;-79
2022/04/08 01:55:12;;;;;;;7.72;2.00;;;;;;;5.80;100.00;94059.38;5091853;28;20043;-79
2022/04/08 01:57:38;;;;;;;6.93;1.88;;;;;;;5.86;100.00;94071.31;5089466;28;20497;-79
2022/04/08 02:00:05;;;;;;;7.28;2.10;;;;;;;5.87;100.00;94059.81;5091235;28;20409;-79
2022/04/08 02:02:30;;;;;;;6.88;2.97;;;;;;;5.78;100.00;94072.69;5105040;27;20048;-79
2022/04/08 02:04:56;;;;;;;6.32;2.13;;;;;;;5.80;100.00;94075.03;5082996;28;20032;-79
2022/04/08 02:07:22;;;;;;;9.73;2.10;;;;;;;5.84;100.00;94076.03;5090155;28;20036;-79
2022/04/08 02:09:47;;;;;;;10.10;2.38;;;;;;;5.78;100.00;94071.91;5105109;28;20073;-78
2022/04/08 02:12:13;;;;;;;7.13;2.92;;;;;;;5.72;100.00;94063.34;5106255;28;20039;-79
2022/04/08 02:14:38;;;;;;;14.35;2.58;;;;;;;5.72;100.00;94066.72;5092326;28;20665;-79
2022/04/08 02:17:04;;;;;;;12.85;2.80;;;;;;;5.71;100.00;94072.22;5090248;28;20740;-78
2022/04/08 02:19:30;;;;;;;10.15;2.40;;;;;;;5.66;100.00;94091.31;5075327;28;20043;-79
2022/04/08 02:21:57;;;;;;;7.65;2.70;;;;;;;5.65;100.00;94097.59;5107665;28;20032;-78
2022/04/08 02:24:24;;;;;;;8.05;2.42;;;;;;;5.64;100.00;94093.41;5106528;28;20040;-79
2022/04/08 02:26:50;;;;;;;12.23;2.50;;;;;;;5.60;100.00;94105.44;5099254;28;20044;-78
2022/04/08 02:29:16;;;;;;;8.65;2.90;;;;;;;5.60;100.00;94121.09;5108711;28;20061;-78
2022/04/08 02:31:41;;;;;;;8.32;2.30;;;;;;;5.65;100.00;94105.41;5074356;28;20047;-78
2022/04/08 02:34:07;;;;;;;8.85;2.83;;;;;;;5.59;100.00;94109.13;5074772;28;20050;-78
2022/04/08 02:36:32;;;;;;;13.60;2.90;;;;;;;5.62;100.00;94119.00;5091925;28;20109;-78
2022/04/08 02:38:58;;;;;;;10.38;2.58;;;;;;;5.66;100.00;94117.41;5099387;28;20497;-78
2022/04/08 02:41:24;;;;;;;8.93;2.88;;;;;;;5.59;100.00;94096.06;5103278;28;20398;-79
2022/04/08 02:43:49;;;;;;;13.13;2.78;;;;;;;5.53;100.00;94113.59;5102037;28;20558;-78
2022/04/08 02:46:15;;;;;;;6.20;2.50;;;;;;;5.49;100.00;94117.03;5077486;28;20093;-78
2022/04/08 02:48:40;;;;;;;13.85;2.40;;;;;;;5.51;100.00;94114.91;5093790;28;20044;-78
2022/04/08 02:51:06;;;;;;;7.70;2.55;;;;;;;5.38;100.00;94106.63;5096364;28;20493;-78
2022/04/08 02:53:32;;;;;;;7.75;2.47;;;;;;;5.36;100.00;94113.97;5091509;28;20055;-78
2022/04/08 02:55:57;;;;;;;11.50;2.95;;;;;;;5.31;100.00;94111.38;5096794;28;20032;-79
2022/04/08 02:58:23;;;;;;;8.07;2.50;;;;;;;5.24;100.00;94100.44;5097007;28;20039;-78
2022/04/08 03:00:48;;;;;;;14.18;3.17;;;;;;;5.16;100.00;94116.69;5088509;28;20050;-78
2022/04/08 03:03:14;;;;;;;16.35;2.92;;;;;;;5.15;100.00;94122.94;5108771;28;20039;-78
2022/04/08 03:05:40;;;;;;;13.40;3.28;;;;;;;5.14;100.00;94126.59;5090434;28;20040;-78
2022/04/08 03:08:05;;;;;;;11.93;2.85;;;;;;;5.14;100.00;94129.19;5079904;28;20123;-80
2022/04/08 03:10:31;;;;;;;15.77;2.95;;;;;;;5.20;100.00;94135.94;5077647;28;20504;-79
2022/04/08 03:12:56;;;;;;;13.65;3.00;;;;;;;5.29;100.00;94136.94;5088853;28;20040;-79
2022/04/08 03:15:22;;;;;;;13.18;2.97;;;;;;;5.25;100.00;94141.16;5108684;28;20035;-79
2022/04/08 03:17:51;;;;;;;12.85;3.13;;;;;;;5.18;100.00;94138.06;5127106;27;20561;-79
2022/04/08 03:20:16;;;;;;;13.48;3.13;;;;;;;5.21;100.00;94145.34;5105615;28;20043;-78
2022/04/08 03:22:42;;;;;;;10.35;2.92;;;;;;;5.30;100.00;94145.53;5106522;28;20031;-78
2022/04/08 03:25:08;;;;;;;13.02;3.15;;;;;;;5.21;100.00;94142.72;5100279;27;20092;-78
2022/04/08 03:27:33;;;;;;;14.93;2.45;;;;;;;5.17;100.00;94146.91;5082491;28;20062;-78
2022/04/08 03:29:59;;;;;;;13.93;3.00;;;;;;;5.13;100.00;94151.09;5076411;28;20097;-78
2022/04/08 03:32:24;;;;;;;12.30;2.75;;;;;;;5.12;100.00;94154.78;5114894;28;20058;-78
2022/04/08 03:34:57;;;;;;;19.73;3.72;;;;;;;4.96;100.00;94156.66;5107117;28;20416;-78
2022/04/08 03:37:23;;;;;;;10.82;3.17;;;;;;;4.98;100.00;94165.75;5093393;28;20047;-79
2022/04/08 03:39:49;;;;;;;17.30;3.30;;;;;;;4.97;100.00;94169.44;5095744;28;20097;-79
2022/04/08 03:42:14;;;;;;;18.42;3.90;;;;;;;4.92;100.00;94171.28;5080251;28;20051;-79
2022/04/08 03:44:40;;;;;;;15.40;3.55;;;;;;;4.97;100.00;94169.44;5084658;28;20051;-78
2022/04/08 03:47:10;;;;;;;11.48;2.42;;;;;;;5.02;100.00;94166.78;5101643;28;20061;-78
2022/04/08 03:49:36;;;;;;;16.77;3.33;;;;;;;4.96;100.00;94173.09;5112933;28;20039;-78
2022/04/08 03:52:05;;;;;;;7.35;2.47;;;;;;;5.03;100.00;94173.56;5107998;28;20055;-79
2022/04/08 03:54:31;;;;;;;16.70;2.60;;;;;;;4.92;100.00;94161.63;5074795;28;20040;-78
2022/04/08 03:56:56;;;;;;;13.23;2.95;;;;;;;4.99;100.00;94182.97;5077729;28;20036;-80
2022/04/08 03:59:22;;;;;;;12.50;2.65;;;;;;;5.01;100.00;94183.50;5091317;28;20047;-80
2022/04/08 04:01:49;;;;;;;14.13;2.58;;;;;;;5.05;100.00;94177.75;5075244;28;20036;-80
2022/04/08 04:04:15;;;;;;;9.80;2.75;;;;;;;4.95;100.00;94196.81;5100378;28;20168;-79
2022/04/08 04:06:41;;;;;;;13.80;2.63;;;;;;;5.03;100.00;94178.78;5095666;28;20111;-79
2022/04/08 04:09:07;;;;;;;8.68;1.90;;;;;;;5.07;100.00;94188.69;5105384;28;20116;-79
2022/04/08 04:11:33;;;;;;;7.03;2.28;;;;;;;4.96;100.00;94178.28;5107555;28;20093;-79
2022/04/08 04:13:59;;;;;;;11.75;2.25;;;;;;;4.92;100.00;94187.69;5094374;28;20039;-80
2022/04/08 04:16:26;;;;;;;13.32;2.03;;;;;;;4.88;100.00;94191.88;5075211;28;20109;-80
2022/04/08 04:18:52;;;;;;;13.18;2.30;;;;;;;4.93;100.00;94194.47;5073044;28;20036;-79
2022/04/08 04:21:17;;;;;;;14.25;2.25;;;;;;;4.93;100.00;94198.88;5072892;28;20051;-79
2022/04/08 04:23:43;;;;;;;12.18;2.40;;;;;;;4.92;100.00;94205.94;5081266;28;20043;-79
2022/04/08 04:26:09;;;;;;;10.98;2.45;;;;;;;4.86;100.00;94199.19;5076312;28;20089;-80
2022/04/08 04:28:34;;;;;;;4.80;2.03;;;;;;;4.94;100.00;94190.84;5091000;28;20048;-80
2022/04/08 04:31:01;;;;;;;11.65;2.25;;;;;;;4.81;100.00;94200.00;5072629;28;20043;-80
2022/04/08 04:33:26;;;;;;;10.40;2.17;;;;;;;4.93;100.00;94189.25;5072062;28;20040;-80
2022/04/08 04:35:52;;;;;;;11.68;2.45;;;;;;;4.86;100.00;94209.63;5090854;28;20414;-79
2022/04/08 04:38:18;;;;;;;6.55;2.15;;;;;;;4.85;100.00;94202.84;5090693;28;20054;-79
2022/04/08 04:40:43;;;;;;;11.98;1.90;;;;;;;4.89;100.00;94205.72;5090673;28;20036;-80
2022/04/08 04:43:09;;;;;;;8.75;2.22;;;;;;;4.87;100.00;94216.41;5096410;28;20035;-80
2022/04/08 04:45:37;;;;;;;5.60;2.00;;;;;;;4.90;100.00;94215.88;5106485;28;20575;-79
2022/04/08 04:48:04;;;;;;;5.82;2.00;;;;;;;4.93;100.00;94217.94;5073045;28;20040;-81
2022/04/08 04:50:29;;;;;;;8.40;2.63;;;;;;;4.99;100.00;94219.47;5090599;28;20040;-80
2022/04/08 04:52:55;;;;;;;13.85;2.70;;;;;;;4.86;100.00;94230.47;5072247;28;20052;-81
2022/04/08 04:55:20;;;;;;;6.60;2.00;;;;;;;4.94;100.00;94216.91;5090130;28;20379;-80
2022/04/08 04:57:46;;;;;;;12.18;2.25;;;;;;;4.85;100.00;94224.47;5072633;28;20046;-81
2022/04/08 05:00:12;;;;;;;9.65;2.47;;;;;;;4.92;100.00;94226.78;5078102;28;20475;-80
2022/04/08 05:02:37;;;;;;;8.98;2.28;;;;;;;4.85;100.00;94234.88;5072033;28;20343;-81
2022/04/08 05:05:03;;;;;;;9.80;2.50;;;;;;;4.85;100.00;94239.31;5085209;28;20070;-81
2022/04/08 05:07:29;;;;;;;11.27;2.50;;;;;;;4.80;100.00;94231.53;5090847;28;20544;-80
2022/04/08 05:09:54;;;;;;;13.10;2.22;;;;;;;4.85;100.00;94239.31;5096861;28;20695;-81
2022/04/08 05:12:20;;;;;;;8.85;2.50;;;;;;;4.82;100.00;94242.47;5090144;28;20040;-81
2022/04/08 05:14:45;;;;;;;13.27;2.70;;;;;;;4.83;100.00;94246.63;5071404;28;20115;-80
2022/04/08 05:17:11;;;;;;;7.35;2.10;;;;;;;4.91;100.00;94253.91;5091197;28;20040;-80
2022/04/08 05:19:36;;;;;;;9.63;2.00;;;;;;;4.98;100.00;94251.81;5072173;28;20409;-80
2022/04/08 05:22:02;;;;;;;10.13;2.58;;;;;;;4.87;100.00;94263.31;5092441;28;20459;-81
2022/04/08 05:24:28;;;;;;;11.65;2.70;;;;;;;4.96;100.00;94268.78;5093259;28;20032;-80
2022/04/08 05:26:53;;;;;;;16.35;2.40;;;;;;;4.83;100.00;94264.88;5084396;28;20040;-79
2022/04/08 05:29:20;;;;;;;10.35;2.53;;;;;;;4.93;100.00;94280.50;5082088;28;20059;-80
2022/04/08 05:31:47;;;;;;;16.48;3.00;;;;;;;4.99;100.00;94276.84;5072499;28;20032;-79
2022/04/08 05:34:12;;;;;;;14.10;2.55;;;;;;;4.93;100.00;94272.69;5071920;28;20447;-79
2022/04/08 05:36:38;;;;;;;9.07;2.00;;;;;;;4.93;100.00;94277.91;5091217;28;20042;-79
2022/04/08 05:39:03;;;;;;;10.30;2.42;;;;;;;5.00;100.00;94281.00;5071625;28;20109;-79
2022/04/08 05:41:28;;;;;;;9.98;2.55;;;;;;;5.00;100.00;94288.06;5089790;28;20040;-79
2022/04/08 05:43:54;;;;;;;12.43;2.45;;;;;;;4.91;100.00;94290.41;5079838;28;20132;-79
2022/04/08 05:46:20;;;;;;;13.57;2.85;;;;;;;4.96;100.00;94293.00;5088929;28;20048;-80
2022/04/08 05:48:45;;;;;;;8.63;2.67;;;;;;;4.91;100.00;94298.22;5109058;28;20405;-79
2022/04/08 05:51:11;;;;;;;8.95;2.90;;;;;;;4.93;100.00;94296.16;5107191;28;20042;-80
2022/04/08 05:53:36;;;;;;;11.90;2.58;;;;;;;4.95;100.00;94301.88;5099015;28;20487;-80
2022/04/08 05:56:03;;;;;;;9.93;2.70;;;;;;;5.00;100.00;94294.06;5072291;28;20081;-80
2022/04/08 05:58:29;;;;;;;12.75;2.67;;;;;;;5.03;100.00;94298.75;5073959;28;20044;-80
2022/04/08 06:00:55;;;;;;;8.25;2.70;;;;;;;5.08;100.00;94299.78;5105183;28;20048;-77
2022/04/08 06:03:20;;;;;;;18.65;3.13;;;;;;;5.07;100.00;94298.22;5105440;28;20043;-78
2022/04/08 06:05:46;;;;;;;12.38;2.95;;;;;;;5.17;100.00;94298.19;5085177;28;20350;-78
2022/04/08 06:08:11;;;;;;;13.65;3.00;;;;;;;5.05;100.00;94300.31;5097644;28;20036;-78
2022/04/08 06:10:37;;;;;;;7.20;2.63;;;;;;;5.14;100.00;94296.09;5111785;28;20039;-78
2022/04/08 06:13:03;;;;;;;11.65;2.30;;;;;;;5.15;100.00;94305.50;5082141;28;20114;-78
2022/04/08 06:15:29;;;;;;;13.35;3.72;;;;;;;5.03;100.00;94303.19;5105348;28;20043;-79
2022/04/08 06:17:55;;;;;;;7.78;2.60;;;;;;;5.06;100.00;94307.06;5114097;28;20237;-78
2022/04/08 06:20:22;;;;;;;10.82;2.15;;;;;;;5.14;100.00;94315.16;5117426;28;20039;-79
2022/04/08 06:22:49;;;;;;;14.55;3.22;;;;;;;5.15;100.00;94315.94;5105914;28;20038;-79
2022/04/08 06:25:16;;;;;;;7.45;2.58;;;;;;;5.07;100.00;94308.63;5099598;28;20032;-78
2022/04/08 06:27:44;;;;;;;10.75;3.00;;;;;;;5.24;100.00;94308.34;5093329;28;20464;-80
2022/04/08 06:30:14;;;;;;;18.42;2.90;;;;;;;5.29;100.00;94296.06;5085074;28;20119;-79
2022/04/08 06:32:41;;;;;;;13.07;2.75;;;;;;;5.24;100.00;94309.13;5104801;28;20539;-78
2022/04/08 06:35:07;;;;;;;8.93;2.83;;;;;;;5.22;100.00;94300.78;5077136;28;20040;-79
2022/04/08 06:37:33;;;;;;;14.20;2.90;;;;;;;5.19;100.00;94301.31;5074228;28;20036;-79
2022/04/08 06:40:09;;;;;;;18.08;3.58;;;;;;;5.25;100.00;94302.88;5088753;28;20039;-78
2022/04/08 06:42:35;;;;;;;17.13;3.08;;;;;;;5.20;100.00;94308.09;5089514;28;20052;-79
2022/04/08 06:45:03;;;;;;;7.22;2.65;;;;;;;5.21;100.00;94294.00;5103714;28;20040;-79
2022/04/08 06:47:29;;;;;;;13.98;2.90;;;;;;;5.22;100.00;94300.00;5086966;28;20447;-79
2022/04/08 06:49:54;;;;;;;9.40;2.78;;;;;;;5.24;100.00;94293.47;5071486;28;20040;-78
2022/04/08 06:52:20;;;;;;;10.63;2.70;;;;;;;5.26;100.00;94296.59;5091310;28;20043;-79
2022/04/08 06:54:46;;;;;;;6.38;2.42;;;;;;;5.25;100.00;94289.81;5078629;28;20040;-79
2022/04/08 06:57:11;;;;;;;7.47;2.47;;;;;;;5.31;100.00;94283.53;5094741;28;20043;-79
2022/04/08 06:59:39;;;;;;;9.48;2.60;;;;;;;5.29;100.00;94280.41;5085631;28;20059;-78
2022/04/08 07:02:05;;;;;;;12.60;2.80;;;;;;;5.30;100.00;94281.19;5101883;28;20100;-80
2022/04/08 07:04:30;;;;;;;13.40;2.63;;;;;;;5.43;100.00;94279.84;5084065;28;20047;-77
2022/04/08 07:06:56;;;;;;;15.45;2.60;;;;;;;5.46;100.00;94279.31;5086635;28;20036;-79
2022/04/08 07:09:22;;;;;;;11.38;3.00;;;;;;;5.40;100.00;94286.38;5084490;28;20043;-78
2022/04/08 07:11:48;;;;;;;8.18;2.78;;;;;;;5.49;100.00;94284.03;5078822;28;20042;-77
2022/04/08 07:14:14;;;;;;;11.18;2.70;;;;;;;5.34;100.00;94283.03;5101516;28;20040;-77
2022/04/08 07:16:41;;;;;;;8.82;2.92;;;;;;;5.48;100.00;94279.84;5093077;27;20039;-78
2022/04/08 07:19:10;;;;;;;14.40;2.80;;;;;;;5.35;100.00;94284.56;5113461;27;20032;-78
2022/04/08 07:21:35;;;;;;;8.68;2.60;;;;;;;5.53;100.00;94269.38;5093212;28;20104;-78
2022/04/08 07:24:01;;;;;;;14.20;2.45;;;;;;;5.59;100.00;94277.97;5084620;28;20444;-78
2022/04/08 07:26:26;;;;;;;8.13;2.20;;;;;;;5.65;100.00;94280.28;5097066;28;20063;-77
2022/04/08 07:28:52;;;;;;;13.38;2.90;;;;;;;5.62;100.00;94267.78;5085835;28;20039;-76
2022/04/08 07:31:17;;;;;;;14.85;3.10;;;;;;;5.66;100.00;94274.03;5102911;28;20039;-77
2022/04/08 07:33:43;;;;;;;11.32;2.72;;;;;;;5.64;100.00;94268.28;5092011;28;20101;-77
2022/04/08 07:36:11;;;;;;;6.82;2.60;;;;;;;5.72;100.00;94261.72;5101494;28;20051;-77
2022/04/08 07:38:36;;;;;;;19.25;2.30;;;;;;;5.79;100.00;94262.22;5103352;28;20039;-78
2022/04/08 07:41:02;;;;;;;13.40;2.70;;;;;;;5.76;100.00;94267.19;5085765;28;20094;-78
2022/04/08 07:43:28;;;;;;;8.25;2.63;;;;;;;5.85;100.00;94260.38;5095814;28;20046;-78
2022/04/08 07:45:53;;;;;;;12.15;2.55;;;;;;;5.81;100.00;94256.72;5086635;28;20101;-78
2022/04/08 07:48:19;;;;;;;9.32;3.13;;;;;;;5.82;100.00;94255.66;5090182;28;20044;-79
2022/04/08 07:50:44;;;;;;;6.05;2.55;;;;;;;5.80;100.00;94263.00;5093487;28;20048;-76
2022/04/08 07:53:10;;;;;;;14.73;3.08;;;;;;;5.87;100.00;94258.25;5101282;28;20047;-76
2022/04/08 07:55:35;;;;;;;11.70;2.90;;;;;;;5.88;100.00;94254.59;5102845;28;20038;-80
2022/04/08 07:58:01;;;;;;;7.47;2.65;;;;;;;5.87;100.00;94253.81;5092527;28;20051;-76
2022/04/08 08:00:28;;;;;;;13.45;2.90;;;;;;;5.85;100.00;94249.91;5101488;28;20039;-76
2022/04/08 08:02:54;;;;;;;9.35;2.72;;;;;;;6.04;100.00;94250.84;5104802;28;20036;-77
2022/04/08 08:05:21;;;;;;;6.20;2.40;;;;;;;6.07;100.00;94252.94;5106748;28;20064;-77
2022/04/08 08:07:55;;;;;;;11.82;2.58;;;;;;;6.00;100.00;94247.22;5091547;28;20040;-75
2022/04/08 08:10:25;;;;;;;11.70;2.80;;;;;;;5.96;100.00;94235.75;5107249;28;20039;-74
2022/04/08 08:12:52;;;;;;;6.63;2.58;;;;;;;5.97;100.00;94231.31;5090249;28;20044;-74
2022/04/08 08:15:18;;;;;;;9.30;2.58;;;;;;;6.10;100.00;94229.94;5110244;28;20050;-75
2022/04/08 08:17:45;;;;;;;7.45;2.50;;;;;;;6.00;100.00;94236.00;5097909;27;20036;-74
2022/04/08 08:20:13;;;;;;;12.70;3.00;;;;;;;5.87;100.00;94226.91;5087146;28;20055;-77
2022/04/08 08:22:39;;;;;;;5.75;3.00;;;;;;;5.89;100.00;94219.63;5098856;28;20043;-74
2022/04/08 08:25:06;;;;;;;7.78;3.10;;;;;;;5.91;100.00;94217.50;5103537;28;20048;-75
2022/04/08 08:27:43;;;;;;;8.18;2.72;;;;;;;5.84;100.00;94211.78;5094939;28;20059;-75
2022/04/08 08:30:10;;;;;;;9.32;2.53;;;;;;;6.13;100.00;94216.34;5080749;28;20044;-76
2022/04/08 08:32:40;;;;;;;13.15;3.22;;;;;;;6.00;100.00;94213.28;5072126;28;20040;-75
2022/04/08 08:35:11;;;;;;;12.10;3.13;;;;;;;6.03;100.00;94199.69;5078187;28;20036;-76
2022/04/08 08:37:36;;;;;;;8.80;3.13;;;;;;;6.19;100.00;94202.19;5105082;28;20040;-75
2022/04/08 08:40:08;;;;;;;15.48;3.00;;;;;;;6.31;100.00;94205.22;5075413;28;20066;-76
2022/04/08 08:42:38;;;;;;;8.18;2.80;;;;;;;6.31;100.00;94205.22;5110694;28;20036;-76
2022/04/08 08:45:06;;;;;;;9.40;2.53;;;;;;;6.25;100.00;94206.31;5086463;28;20048;-75
2022/04/08 08:47:32;;;;;;;7.80;2.58;;;;;;;6.19;100.00;94208.19;5078707;28;20040;-76
2022/04/08 08:49:59;;;;;;;8.70;2.63;;;;;;;6.05;100.00;94208.03;5090803;28;20047;-74
2022/04/08 08:52:25;;;;;;;7.53;2.63;;;;;;;6.19;100.00;94202.19;5072618;28;20278;-76
2022/04/08 08:54:51;;;;;;;10.55;2.78;;;;;;;6.25;100.00;94195.88;5093064;28;20089;-77
2022/04/08 08:57:18;;;;;;;8.02;2.67;;;;;;;6.33;100.00;94182.19;5100508;28;20085;-76
2022/04/08 08:59:44;;;;;;;7.95;3.10;;;;;;;6.31;100.00;94178.34;5084982;28;20035;-76
2022/04/08 09:02:12;;;;;;;7.60;2.97;;;;;;;6.56;100.00;94174.69;5084903;28;20085;-76
2022/04/08 09:04:41;;;;;;;8.95;3.15;;;;;;;6.49;100.00;94164.56;5104740;28;20040;-75
2022/04/08 09:07:28;;;;;;;12.82;3.30;;;;;;;6.71;100.00;94171.94;5104317;28;20038;-75
2022/04/08 09:09:56;;;;;;;9.10;2.88;;;;;;;6.94;100.00;94159.16;5080868;28;20414;-76
2022/04/08 09:12:26;;;;;;;8.20;2.83;;;;;;;6.64;100.00;94161.03;5087318;28;20031;-75
2022/04/08 09:14:56;;;;;;;8.13;2.67;;;;;;;6.61;100.00;94156.34;5090440;28;20506;-74
2022/04/08 09:17:24;;;;;;;7.40;3.10;;;;;;;6.67;100.00;94155.25;5105082;28;20040;-74
2022/04/08 09:19:51;;;;;;;8.88;2.75;;;;;;;6.92;100.00;94137.72;5093469;27;20040;-74
2022/04/08 09:22:17;;;;;;;7.25;2.42;;;;;;;6.87;100.00;94143.00;5089663;28;20124;-74
2022/04/08 09:24:43;;;;;;;6.90;2.70;;;;;;;6.80;100.00;94142.56;5098254;28;20040;-74
2022/04/08 09:27:10;;;;;;;8.75;2.60;;;;;;;6.75;100.00;94136.34;5098102;28;20039;-74
2022/04/08 09:29:36;;;;;;;7.43;2.40;;;;;;;6.64;100.00;94134.88;5100696;28;20123;-75
2022/04/08 09:32:09;;;;;;;9.55;2.78;;;;;;;6.84;100.00;94118.19;5080248;28;20091;-75
2022/04/08 09:34:34;;;;;;;6.50;2.67;;;;;;;6.76;100.00;94106.50;5105651;28;20113;-75
2022/04/08 09:37:11;;;;;;;6.78;2.63;;;;;;;7.05;100.00;94092.56;5108705;28;20048;-75
2022/04/08 09:39:52;;;;;;;8.65;2.75;;;;;;;6.72;100.00;94095.06;5102437;28;20051;-76
2022/04/08 09:42:17;;;;;;;8.77;3.17;;;;;;;6.71;100.00;94085.66;5093283;28;20036;-76
2022/04/08 09:44:43;;;;;;;11.07;3.47;;;;;;;7.03;100.00;94070.38;5096680;28;20168;-76
2022/04/08 09:47:09;;;;;;;10.15;3.47;;;;;;;6.83;100.00;94068.78;5103933;28;20472;-76
2022/04/08 09:49:35;;;;;;;6.55;3.35;;;;;;;6.89;100.00;94057.97;5099191;28;20270;-75
2022/04/08 09:52:05;;;;;;;10.82;3.83;;;;;;;7.16;100.00;94061.03;5103906;28;20037;-76
2022/04/08 09:54:32;;;;;;;10.48;3.70;;;;;;;7.25;100.00;94061.94;5107081;28;20043;-76
2022/04/08 09:56:59;;;;;;;10.05;3.10;;;;;;;7.22;100.00;94059.91;5082454;28;20036;-76
2022/04/08 09:59:28;;;;;;;8.70;3.25;;;;;;;7.34;100.00;94044.56;5101335;28;20158;-75
2022/04/08 10:02:01;;;;;;;7.43;3.10;;;;;;;7.33;100.00;94045.63;5091058;28;20055;-76
2022/04/08 10:04:28;;;;;;;10.95;3.70;;;;;;;7.46;100.00;94044.88;5089603;28;20036;-76
2022/04/08 10:06:55;;;;;;;12.00;3.90;;;;;;;7.44;100.00;94033.94;5078500;28;20065;-76
2022/04/08 10:09:25;;;;;;;9.90;3.50;;;;;;;7.56;100.00;94027.50;5105246;27;20512;-78
2022/04/08 10:12:08;;;;;;;7.95;3.22;;;;;;;7.82;100.00;94013.97;5113207;28;20046;-77
2022/04/08 10:14:40;;;;;;;6.80;2.80;;;;;;;7.86;100.00;94020.16;5108803;28;20091;-76
2022/04/08 10:17:07;;;;;;;7.63;2.88;;;;;;;7.63;100.00;94020.03;5110868;28;20071;-77
2022/04/08 10:19:33;;;;;;;6.53;2.80;;;;;;;7.42;100.00;94028.19;5102066;28;20044;-77
2022/04/08 10:22:00;;;;;;;5.78;2.67;;;;;;;7.28;100.00;94027.38;5086025;28;20044;-77
2022/04/08 10:24:28;;;;;;;9.60;3.80;;;;;;;7.56;100.00;94037.97;5090175;28;20051;-77
2022/04/08 10:27:05;;;;;;;8.77;3.50;;;;;;;7.56;100.00;94017.00;5093189;28;20044;-77
2022/04/08 10:29:33;;;;;;;6.45;3.10;;;;;;;7.55;100.00;94004.97;5094343;28;20075;-77
2022/04/08 10:32:02;;;;;;;7.47;2.80;;;;;;;7.40;100.00;93995.53;5076366;28;20072;-76
2022/04/08 10:34:32;;;;;;;5.15;2.65;;;;;;;7.51;100.00;93993.53;5100650;28;20054;-77
2022/04/08 10:37:12;;;;;;;8.05;3.70;;;;;;;7.61;100.00;93988.13;5107809;28;20111;-76
2022/04/08 10:39:38;;;;;;;6.93;3.70;;;;;;;7.54;100.00;93977.25;5091009;28;20089;-76
2022/04/08 10:42:06;;;;;;;7.50;3.45;;;;;;;7.55;100.00;93970.94;5093360;28;20614;-76
2022/04/08 10:44:37;;;;;;;6.75;3.42;;;;;;;7.62;100.00;93968.75;5096600;28;20044;-76
2022/04/08 10:47:16;;;;;;;8.82;3.10;;;;;;;7.70;100.00;93949.75;5092581;28;20040;-75
2022/04/08 10:49:47;;;;;;;7.32;3.35;;;;;;;7.94;100.00;93943.56;5086568;28;20042;-77
2022/04/08 10:52:18;;;;;;;9.00;3.35;;;;;;;8.01;100.00;93933.47;5103542;28;20039;-76
2022/04/08 10:54:44;;;;;;;8.35;3.58;;;;;;;8.20;100.00;93940.44;5111537;28;20036;-77
2022/04/08 10:57:10;;;;;;;6.50;3.55;;;;;;;8.22;100.00;93930.47;5090631;28;20047;-77
2022/04/08 10:59:36;;;;;;;9.27;3.97;;;;;;;8.23;100.00;93929.38;5077907;28;20051;-77
2022/04/08 11:02:06;;;;;;;7.47;3.72;;;;;;;8.35;100.00;93931.50;5099067;27;20032;-76
2022/04/08 11:04:32;;;;;;;10.63;4.45;;;;;;;8.36;100.00;93923.38;5102000;28;20040;-78
2022/04/08 11:07:07;;;;;;;7.75;4.32;;;;;;;8.25;100.00;93914.91;5094360;28;20043;-76
2022/04/08 11:09:33;;;;;;;7.07;3.53;;;;;;;8.30;100.00;93908.78;5099725;28;20071;-77
2022/04/08 11:12:00;;;;;;;9.13;3.63;;;;;;;8.28;100.00;93897.84;5075742;27;20093;-76
2022/04/08 11:14:28;;;;;;;8.70;3.45;;;;;;;8.29;100.00;93896.78;5105711;28;20052;-76
2022/04/08 11:16:54;;;;;;;6.28;3.40;;;;;;;8.30;100.00;93882.59;5111836;27;20040;-76
2022/04/08 11:19:21;;;;;;;10.00;3.63;;;;;;;8.28;100.00;93879.50;5109947;28;20520;-75
2022/04/08 11:21:47;;;;;;;9.10;3.88;;;;;;;8.35;100.00;93884.31;5111700;28;20036;-76
2022/04/08 11:24:16;;;;;;;11.13;4.28;;;;;;;8.45;100.00;93873.66;5102430;28;20044;-80
2022/04/08 11:26:42;;;;;;;8.30;3.70;;;;;;;8.48;100.00;93867.84;5104428;28;20087;-79